createdAt,value
2023-03-25T00:00:16.003Z,10.74
2023-03-25T00:00:59.552Z,10.71
2023-03-25T00:01:41.363Z,10.69
2023-03-25T00:02:24.106Z,10.67
2023-03-25T00:03:05.929Z,10.69
2023-03-25T00:03:50.444Z,10.71
2023-03-25T00:04:35.022Z,10.43
2023-03-25T00:05:19.740Z,10.65
2023-03-25T00:06:02.008Z,10.59
2023-03-25T00:06:43.961Z,10.50
2023-03-25T00:07:25.764Z,10.42
2023-03-25T00:08:07.413Z,10.42
2023-03-25T00:08:49.168Z,10.42
2023-03-25T00:09:30.938Z,10.50
2023-03-25T00:10:13.750Z,10.41
2023-03-25T00:10:58.951Z,10.53
2023-03-25T00:11:40.636Z,10.57
2023-03-25T00:12:22.303Z,10.63
2023-03-25T00:13:05.510Z,10.63
2023-03-25T00:13:50.415Z,10.56
2023-03-25T00:14:32.942Z,10.63
2023-03-25T00:15:16.223Z,10.53
2023-03-25T00:15:58.918Z,10.55
2023-03-25T00:16:40.641Z,10.51
2023-03-25T00:17:23.546Z,10.58
2023-03-25T00:18:05.431Z,10.58
2023-03-25T00:18:47.963Z,10.47
2023-03-25T00:19:29.850Z,10.49
2023-03-25T00:20:11.963Z,10.56
2023-03-25T00:20:53.613Z,10.50
2023-03-25T00:21:35.488Z,10.60
2023-03-25T00:22:19.955Z,10.52
2023-03-25T00:23:01.628Z,10.61
2023-03-25T00:23:43.358Z,10.63
2023-03-25T00:24:25.207Z,10.63
2023-03-25T00:25:12.076Z,10.62
2023-03-25T00:25:56.195Z,10.61
2023-03-25T00:26:42.628Z,10.61
2023-03-25T00:27:24.410Z,10.58
2023-03-25T00:28:06.128Z,10.52
2023-03-25T00:28:47.753Z,10.46
2023-03-25T00:29:29.454Z,10.50
2023-03-25T00:30:11.745Z,10.42
2023-03-25T00:30:53.936Z,10.41
2023-03-25T00:31:35.707Z,10.48
2023-03-25T00:32:17.405Z,10.41
2023-03-25T00:33:01.732Z,10.42
2023-03-25T00:33:43.582Z,10.49
2023-03-25T00:34:25.862Z,10.37
2023-03-25T00:35:08.503Z,10.35
2023-03-25T00:35:54.520Z,10.37
2023-03-25T00:36:37.594Z,10.28
2023-03-25T00:37:21.712Z,10.27
2023-03-25T00:38:03.521Z,10.20
2023-03-25T00:38:50.004Z,10.18
2023-03-25T00:39:31.798Z,10.17
2023-03-25T00:40:14.126Z,10.11
2023-03-25T00:40:55.829Z,10.04
2023-03-25T00:41:37.709Z,10.00
2023-03-25T00:42:26.112Z,10.08
2023-03-25T00:43:08.113Z,10.05
2023-03-25T00:43:52.310Z,10.04
2023-03-25T00:44:34.820Z,10.05
2023-03-25T00:45:16.955Z,9.97
2023-03-25T00:45:58.693Z,9.91
2023-03-25T00:46:40.471Z,9.93
2023-03-25T00:47:22.781Z,9.98
2023-03-25T00:48:06.789Z,9.85
2023-03-25T00:48:49.767Z,9.98
2023-03-25T00:49:31.450Z,9.99
2023-03-25T00:50:13.757Z,9.94
2023-03-25T00:50:55.922Z,9.96
2023-03-25T00:51:52.439Z,9.93
2023-03-25T00:52:35.361Z,9.92
2023-03-25T00:53:17.089Z,9.92
2023-03-25T00:54:03.278Z,9.88
2023-03-25T00:54:45.857Z,9.89
2023-03-25T00:55:27.573Z,9.93
2023-03-25T00:56:09.300Z,9.96
2023-03-25T00:56:52.719Z,9.98
2023-03-25T00:57:34.711Z,9.94
2023-03-25T00:58:16.426Z,9.83
2023-03-25T00:58:58.274Z,10.00
2023-03-25T00:59:41.132Z,9.95
2023-03-25T01:00:22.905Z,9.92
2023-03-25T01:01:16.489Z,9.99
2023-03-25T01:01:58.680Z,9.92
2023-03-25T01:02:40.572Z,9.85
2023-03-25T01:03:24.102Z,9.88
2023-03-25T01:04:12.083Z,9.85
2023-03-25T01:04:55.051Z,9.76
2023-03-25T01:05:37.505Z,9.83
2023-03-25T01:06:21.597Z,9.81
2023-03-25T01:07:03.580Z,9.86
2023-03-25T01:07:45.441Z,9.78
2023-03-25T01:08:29.603Z,9.84
2023-03-25T01:09:13.972Z,9.87
2023-03-25T01:09:57.127Z,9.87
2023-03-25T01:10:38.888Z,9.69
2023-03-25T01:11:23.456Z,9.90
2023-03-25T01:12:05.463Z,9.85
2023-03-25T01:12:47.364Z,9.83
2023-03-25T01:13:29.097Z,9.88
2023-03-25T01:14:19.854Z,9.87
2023-03-25T01:15:01.806Z,9.86
2023-03-25T01:15:43.518Z,9.91
2023-03-25T01:16:25.641Z,9.94
2023-03-25T01:17:07.952Z,9.84
2023-03-25T01:17:49.675Z,9.89
2023-03-25T01:18:34.881Z,9.79
2023-03-25T01:19:16.494Z,9.87
2023-03-25T01:19:58.175Z,9.79
2023-03-25T01:20:40.498Z,9.82
2023-03-25T01:21:23.052Z,9.90
2023-03-25T01:22:05.301Z,9.88
2023-03-25T01:22:47.062Z,9.72
2023-03-25T01:23:28.729Z,9.78
2023-03-25T01:24:13.619Z,9.88
2023-03-25T01:24:55.388Z,9.79
2023-03-25T01:25:37.614Z,9.80
2023-03-25T01:26:19.276Z,9.91
2023-03-25T01:27:01.050Z,9.89
2023-03-25T01:27:44.211Z,10.03
2023-03-25T01:28:26.381Z,9.99
2023-03-25T01:29:08.170Z,10.09
2023-03-25T01:29:50.228Z,10.03
2023-03-25T01:30:32.192Z,10.02
2023-03-25T01:31:15.850Z,10.13
2023-03-25T01:31:58.012Z,10.13
2023-03-25T01:32:39.811Z,10.03
2023-03-25T01:33:21.759Z,10.09
2023-03-25T01:34:03.436Z,10.17
2023-03-25T01:34:46.931Z,10.14
2023-03-25T01:35:28.760Z,10.20
2023-03-25T01:36:12.850Z,10.19
2023-03-25T01:36:55.461Z,10.11
2023-03-25T01:37:39.086Z,10.13
2023-03-25T01:38:21.236Z,10.18
2023-03-25T01:39:05.652Z,10.18
2023-03-25T01:39:47.310Z,10.20
2023-03-25T01:40:29.026Z,10.31
2023-03-25T01:41:10.994Z,10.34
2023-03-25T01:41:55.063Z,10.31
2023-03-25T01:42:36.792Z,10.32
2023-03-25T01:43:18.576Z,10.32
2023-03-25T01:44:22.763Z,10.32
2023-03-25T01:45:16.532Z,10.28
2023-03-25T01:45:58.973Z,10.35
2023-03-25T01:46:47.014Z,10.31
2023-03-25T01:47:29.321Z,10.13
2023-03-25T01:48:19.686Z,10.17
2023-03-25T01:49:04.661Z,10.24
2023-03-25T01:49:46.776Z,10.16
2023-03-25T01:50:29.337Z,10.12
2023-03-25T01:51:26.084Z,10.09
2023-03-25T01:52:16.749Z,10.18
2023-03-25T01:53:01.877Z,10.06
2023-03-25T01:53:43.722Z,10.04
2023-03-25T01:54:27.460Z,10.09
2023-03-25T01:55:09.901Z,9.94
2023-03-25T01:55:53.021Z,10.03
2023-03-25T01:56:39.069Z,10.01
2023-03-25T01:57:23.348Z,10.13
2023-03-25T01:58:18.243Z,10.17
2023-03-25T01:59:02.912Z,10.19
2023-03-25T01:59:44.809Z,10.02
2023-03-25T02:00:26.923Z,10.13
2023-03-25T02:01:13.787Z,10.21
2023-03-25T02:01:58.213Z,10.21
2023-03-25T02:02:42.715Z,10.27
2023-03-25T02:03:25.306Z,10.24
2023-03-25T02:04:11.992Z,10.33
2023-03-25T02:05:00.548Z,10.34
2023-03-25T02:05:42.151Z,10.34
2023-03-25T02:06:33.062Z,10.33
2023-03-25T02:07:16.562Z,10.31
2023-03-25T02:07:59.377Z,10.30
2023-03-25T02:08:41.753Z,10.16
2023-03-25T02:09:26.412Z,10.19
2023-03-25T02:10:09.776Z,10.08
2023-03-25T02:10:52.891Z,10.12
2023-03-25T02:11:35.674Z,10.06
2023-03-25T02:12:17.305Z,9.92
2023-03-25T02:12:59.579Z,9.86
2023-03-25T02:13:42.116Z,9.91
2023-03-25T02:14:28.817Z,9.87
2023-03-25T02:15:11.226Z,9.77
2023-03-25T02:16:21.881Z,9.75
2023-03-25T02:17:03.599Z,9.73
2023-03-25T02:18:02.790Z,9.70
2023-03-25T02:19:13.507Z,9.58
2023-03-25T02:20:22.826Z,9.52
2023-03-25T02:21:23.359Z,9.43
2023-03-25T02:22:47.569Z,9.31
2023-03-25T02:24:14.362Z,9.22
2023-03-25T02:25:26.213Z,9.19
2023-03-25T02:26:16.478Z,9.13
2023-03-25T02:27:00.779Z,9.09
2023-03-25T02:28:03.312Z,9.01
2023-03-25T02:29:02.000Z,8.96
2023-03-25T02:30:15.082Z,8.91
2023-03-25T02:31:11.283Z,8.83
2023-03-25T02:32:24.576Z,8.80
2023-03-25T02:33:33.759Z,8.77
2023-03-25T02:34:46.278Z,8.74
2023-03-25T02:35:49.787Z,8.65
2023-03-25T02:37:03.297Z,8.72
2023-03-25T02:38:06.329Z,8.71
2023-03-25T02:39:01.301Z,8.65
2023-03-25T02:39:48.564Z,8.76
2023-03-25T02:41:20.392Z,8.77
2023-03-25T02:42:12.326Z,8.80
2023-03-25T02:43:23.129Z,8.69
2023-03-25T02:44:12.843Z,8.71
2023-03-25T02:45:12.525Z,8.80
2023-03-25T02:45:57.769Z,8.88
2023-03-25T02:46:47.846Z,8.83
2023-03-25T02:47:36.421Z,8.75
2023-03-25T02:48:23.604Z,8.75
2023-03-25T02:49:10.625Z,8.90
2023-03-25T02:49:58.687Z,8.94
2023-03-25T02:50:52.163Z,8.86
2023-03-25T02:52:06.343Z,8.99
2023-03-25T02:52:52.734Z,8.93
2023-03-25T02:53:37.285Z,8.91
2023-03-25T02:54:24.156Z,8.93
2023-03-25T02:55:10.338Z,9.02
2023-03-25T02:55:55.591Z,9.01
2023-03-25T02:56:39.490Z,8.97
2023-03-25T02:57:23.017Z,8.93
2023-03-25T02:58:09.230Z,8.95
2023-03-25T02:58:55.521Z,8.88
2023-03-25T02:59:38.996Z,8.93
2023-03-25T03:00:28.576Z,9.00
2023-03-25T03:01:10.501Z,8.88
2023-03-25T03:01:58.565Z,8.94
2023-03-25T03:03:01.344Z,8.99
2023-03-25T03:03:45.375Z,8.87
2023-03-25T03:04:27.704Z,8.85
2023-03-25T03:05:24.027Z,8.81
2023-03-25T03:06:07.075Z,8.83
2023-03-25T03:06:49.832Z,8.91
2023-03-25T03:07:41.605Z,8.90
2023-03-25T03:08:41.736Z,8.98
2023-03-25T03:09:35.032Z,8.98
2023-03-25T03:10:30.177Z,8.92
2023-03-25T03:11:29.848Z,8.98
2023-03-25T03:12:42.917Z,9.03
2023-03-25T03:13:49.574Z,9.04
2023-03-25T03:15:01.799Z,9.09
2023-03-25T03:15:51.084Z,9.06
2023-03-25T03:16:44.689Z,9.06
2023-03-25T03:17:41.418Z,8.98
2023-03-25T03:18:53.026Z,9.09
2023-03-25T03:19:47.102Z,9.07
2023-03-25T03:20:41.459Z,8.92
2023-03-25T03:21:32.547Z,8.87
2023-03-25T03:22:26.324Z,9.00
2023-03-25T03:23:24.797Z,8.98
2023-03-25T03:24:16.571Z,8.82
2023-03-25T03:25:01.343Z,8.97
2023-03-25T03:25:53.834Z,8.90
2023-03-25T03:26:46.397Z,8.96
2023-03-25T03:27:35.832Z,8.86
2023-03-25T03:28:32.091Z,8.90
2023-03-25T03:29:21.541Z,8.79
2023-03-25T03:30:06.167Z,8.97
2023-03-25T03:31:11.997Z,9.02
2023-03-25T03:32:06.300Z,9.05
2023-03-25T03:33:03.710Z,9.04
2023-03-25T03:33:53.570Z,8.92
2023-03-25T03:34:57.438Z,8.54
2023-03-25T03:36:02.664Z,8.94
2023-03-25T03:36:50.035Z,8.89
2023-03-25T03:37:40.767Z,8.90
2023-03-25T03:38:25.939Z,8.93
2023-03-25T03:39:16.910Z,8.95
2023-03-25T03:39:58.697Z,8.82
2023-03-25T03:40:45.334Z,8.97
2023-03-25T03:41:29.024Z,8.96
2023-03-25T03:42:26.186Z,8.96
2023-03-25T03:43:16.308Z,8.93
2023-03-25T03:44:02.738Z,8.95
2023-03-25T03:44:50.122Z,8.95
2023-03-25T03:45:42.780Z,8.91
2023-03-25T03:46:34.137Z,8.83
2023-03-25T03:47:21.628Z,8.90
2023-03-25T03:48:09.941Z,8.81
2023-03-25T03:48:55.825Z,8.91
2023-03-25T03:49:49.744Z,8.71
2023-03-25T03:50:37.297Z,8.77
2023-03-25T03:51:30.894Z,8.16
2023-03-25T03:52:17.842Z,8.87
2023-03-25T03:53:13.216Z,8.88
2023-03-25T03:54:00.543Z,8.91
2023-03-25T03:54:50.920Z,8.76
2023-03-25T03:55:41.833Z,8.86
2023-03-25T03:56:32.236Z,8.87
2023-03-25T03:57:16.730Z,8.86
2023-03-25T03:58:06.009Z,8.88
2023-03-25T03:58:50.965Z,8.91
2023-03-25T03:59:34.567Z,8.93
2023-03-25T04:00:22.547Z,8.82
2023-03-25T04:01:13.994Z,8.93
2023-03-25T04:02:00.801Z,8.78
2023-03-25T04:02:50.878Z,8.87
2023-03-25T04:03:39.782Z,8.93
2023-03-25T04:04:26.781Z,8.83
2023-03-25T04:05:12.357Z,8.88
2023-03-25T04:06:01.289Z,8.89
2023-03-25T04:06:56.907Z,8.84
2023-03-25T04:07:54.933Z,8.90
2023-03-25T04:09:09.171Z,8.90
2023-03-25T04:09:54.996Z,8.90
2023-03-25T04:11:07.876Z,8.90
2023-03-25T04:11:59.761Z,8.89
2023-03-25T04:12:45.931Z,8.82
2023-03-25T04:13:33.788Z,8.90
2023-03-25T04:14:15.688Z,8.83
2023-03-25T04:15:01.342Z,8.87
2023-03-25T04:15:43.443Z,8.83
2023-03-25T04:16:25.401Z,8.88
2023-03-25T04:17:07.277Z,8.81
2023-03-25T04:17:49.027Z,8.88
2023-03-25T04:18:33.712Z,8.84
2023-03-25T04:19:18.512Z,8.91
2023-03-25T04:20:01.653Z,8.87
2023-03-25T04:20:44.960Z,8.95
2023-03-25T04:21:29.898Z,8.93
2023-03-25T04:22:13.666Z,8.82
2023-03-25T04:22:55.654Z,9.00
2023-03-25T04:23:39.353Z,8.91
2023-03-25T04:24:20.976Z,9.03
2023-03-25T04:25:02.687Z,8.98
2023-03-25T04:25:47.695Z,9.07
2023-03-25T04:26:33.623Z,9.04
2023-03-25T04:27:16.813Z,8.97
2023-03-25T04:27:59.963Z,8.98
2023-03-25T04:28:44.513Z,9.02
2023-03-25T04:29:26.230Z,9.00
2023-03-25T04:30:09.569Z,8.99
2023-03-25T04:30:55.848Z,9.00
2023-03-25T04:31:37.864Z,9.02
2023-03-25T04:32:19.576Z,9.01
2023-03-25T04:33:01.681Z,8.96
2023-03-25T04:33:48.447Z,8.96
2023-03-25T04:34:30.261Z,9.02
2023-03-25T04:35:12.907Z,9.01
2023-03-25T04:35:54.687Z,9.00
2023-03-25T04:36:41.713Z,8.93
2023-03-25T04:37:25.656Z,9.06
2023-03-25T04:38:08.104Z,9.11
2023-03-25T04:38:49.706Z,9.02
2023-03-25T04:39:32.196Z,9.16
2023-03-25T04:40:16.326Z,9.10
2023-03-25T04:40:58.371Z,9.19
2023-03-25T04:41:40.276Z,9.20
2023-03-25T04:42:25.772Z,9.14
2023-03-25T04:43:07.572Z,9.16
2023-03-25T04:43:49.306Z,9.11
2023-03-25T04:44:33.773Z,9.15
2023-03-25T04:45:19.275Z,9.09
2023-03-25T04:46:02.650Z,9.11
2023-03-25T04:46:44.353Z,9.05
2023-03-25T04:47:26.287Z,9.18
2023-03-25T04:48:19.948Z,9.10
2023-03-25T04:49:05.950Z,9.08
2023-03-25T04:49:48.039Z,9.16
2023-03-25T04:50:30.272Z,9.20
2023-03-25T04:51:13.413Z,9.25
2023-03-25T04:51:55.730Z,9.19
2023-03-25T04:52:40.574Z,9.25
2023-03-25T04:53:22.640Z,9.26
2023-03-25T04:54:04.294Z,9.21
2023-03-25T04:54:46.397Z,9.17
2023-03-25T04:55:29.851Z,9.33
2023-03-25T04:56:17.443Z,9.35
2023-03-25T04:56:59.292Z,9.28
2023-03-25T04:57:41.059Z,9.32
2023-03-25T04:58:22.960Z,9.23
2023-03-25T04:59:04.599Z,9.25
2023-03-25T04:59:46.503Z,9.30
2023-03-25T05:00:28.286Z,9.29
2023-03-25T05:01:21.543Z,9.41
2023-03-25T05:02:05.892Z,9.34
2023-03-25T05:02:49.963Z,9.29
2023-03-25T05:03:32.781Z,9.31
2023-03-25T05:04:17.321Z,9.27
2023-03-25T05:05:02.220Z,9.22
2023-03-25T05:05:43.911Z,9.10
2023-03-25T05:06:26.340Z,9.06
2023-03-25T05:07:08.424Z,9.07
2023-03-25T05:07:53.175Z,9.07
2023-03-25T05:08:34.929Z,9.13
2023-03-25T05:09:19.986Z,9.21
2023-03-25T05:10:01.727Z,9.19
2023-03-25T05:10:43.939Z,8.68
2023-03-25T05:11:25.617Z,9.06
2023-03-25T05:12:11.141Z,9.16
2023-03-25T05:12:59.092Z,9.26
2023-03-25T05:13:40.859Z,9.23
2023-03-25T05:14:22.640Z,9.25
2023-03-25T05:15:04.786Z,9.22
2023-03-25T05:15:47.899Z,9.20
2023-03-25T05:16:29.875Z,9.18
2023-03-25T05:17:11.527Z,9.18
2023-03-25T05:17:53.320Z,9.19
2023-03-25T05:18:35.685Z,9.10
2023-03-25T05:19:18.951Z,9.20
2023-03-25T05:20:00.770Z,9.11
2023-03-25T05:20:46.859Z,9.22
2023-03-25T05:21:28.555Z,9.26
2023-03-25T05:22:10.844Z,9.26
2023-03-25T05:22:53.565Z,9.16
2023-03-25T05:23:35.306Z,9.18
2023-03-25T05:24:17.401Z,9.20
2023-03-25T05:24:59.060Z,9.24
2023-03-25T05:25:41.541Z,9.33
2023-03-25T05:26:23.325Z,9.28
2023-03-25T05:27:04.953Z,9.31
2023-03-25T05:27:46.670Z,9.22
2023-03-25T05:28:28.367Z,9.10
2023-03-25T05:29:14.342Z,9.22
2023-03-25T05:29:58.920Z,9.15
2023-03-25T05:30:42.297Z,9.15
2023-03-25T05:31:23.972Z,9.19
2023-03-25T05:32:05.976Z,9.31
2023-03-25T05:32:50.956Z,9.24
2023-03-25T05:33:43.317Z,9.39
2023-03-25T05:34:25.651Z,9.32
2023-03-25T05:35:08.241Z,9.36
2023-03-25T05:35:50.740Z,9.32
2023-03-25T05:36:32.682Z,9.21
2023-03-25T05:37:14.785Z,9.26
2023-03-25T05:37:56.765Z,9.26
2023-03-25T05:38:41.719Z,9.14
2023-03-25T05:39:24.427Z,9.21
2023-03-25T05:40:15.100Z,9.26
2023-03-25T05:40:57.037Z,9.16
2023-03-25T05:41:39.074Z,9.23
2023-03-25T05:42:24.151Z,9.17
2023-03-25T05:43:06.744Z,9.13
2023-03-25T05:43:50.893Z,8.99
2023-03-25T05:44:32.664Z,9.08
2023-03-25T05:45:16.408Z,9.06
2023-03-25T05:45:58.130Z,8.98
2023-03-25T05:46:39.900Z,9.05
2023-03-25T05:47:23.873Z,8.95
2023-03-25T05:48:06.033Z,8.95
2023-03-25T05:48:47.990Z,8.81
2023-03-25T05:49:29.870Z,9.03
2023-03-25T05:50:11.922Z,9.00
2023-03-25T05:50:56.542Z,8.98
2023-03-25T05:51:38.511Z,8.95
2023-03-25T05:52:24.491Z,9.02
2023-03-25T05:53:06.290Z,9.02
2023-03-25T05:53:52.202Z,9.03
2023-03-25T05:54:33.808Z,8.87
2023-03-25T05:55:20.703Z,9.10
2023-03-25T05:56:02.753Z,9.07
2023-03-25T05:56:44.632Z,9.09
2023-03-25T05:57:26.352Z,8.95
2023-03-25T05:58:08.112Z,8.62
2023-03-25T05:58:52.086Z,9.06
2023-03-25T05:59:33.792Z,9.01
2023-03-25T06:00:19.148Z,9.08
2023-03-25T06:01:03.143Z,9.03
2023-03-25T06:01:47.382Z,9.08
2023-03-25T06:02:30.566Z,9.13
2023-03-25T06:03:13.118Z,9.04
2023-03-25T06:03:54.851Z,9.19
2023-03-25T06:04:41.375Z,9.20
2023-03-25T06:05:25.968Z,9.19
2023-03-25T06:06:13.912Z,9.29
2023-03-25T06:06:55.736Z,9.23
2023-03-25T06:07:37.541Z,9.24
2023-03-25T06:08:25.893Z,9.33
2023-03-25T06:09:08.019Z,9.37
2023-03-25T06:09:50.073Z,9.39
2023-03-25T06:10:33.343Z,9.40
2023-03-25T06:11:15.020Z,9.33
2023-03-25T06:11:56.688Z,9.40
2023-03-25T06:12:39.576Z,9.41
2023-03-25T06:13:21.731Z,9.42
2023-03-25T06:14:04.813Z,9.43
2023-03-25T06:14:47.440Z,9.45
2023-03-25T06:15:33.590Z,9.35
2023-03-25T06:16:18.620Z,9.43
2023-03-25T06:17:00.355Z,9.45
2023-03-25T06:17:42.580Z,9.44
2023-03-25T06:18:27.258Z,9.52
2023-03-25T06:19:09.499Z,9.56
2023-03-25T06:19:51.766Z,9.59
2023-03-25T06:20:33.576Z,9.61
2023-03-25T06:21:15.236Z,9.56
2023-03-25T06:21:56.976Z,9.59
2023-03-25T06:22:40.055Z,9.62
2023-03-25T06:23:24.891Z,9.60
2023-03-25T06:24:07.123Z,9.63
2023-03-25T06:24:49.001Z,9.62
2023-03-25T06:25:31.314Z,9.55
2023-03-25T06:26:12.976Z,9.61
2023-03-25T06:26:54.682Z,9.64
2023-03-25T06:27:40.280Z,9.63
2023-03-25T06:28:23.318Z,9.61
2023-03-25T06:29:05.058Z,9.63
2023-03-25T06:29:47.213Z,9.63
2023-03-25T06:30:29.627Z,9.60
2023-03-25T06:31:16.958Z,9.71
2023-03-25T06:31:58.723Z,9.72
2023-03-25T06:32:40.458Z,9.74
2023-03-25T06:33:43.174Z,9.72
2023-03-25T06:34:23.986Z,9.74
2023-03-25T06:35:07.604Z,9.77
2023-03-25T06:35:53.707Z,9.83
2023-03-25T06:36:35.768Z,9.81
2023-03-25T06:37:17.413Z,9.88
2023-03-25T06:37:59.271Z,9.75
2023-03-25T06:38:48.401Z,9.79
2023-03-25T06:39:31.514Z,9.78
2023-03-25T06:40:15.777Z,9.86
2023-03-25T06:40:57.437Z,9.82
2023-03-25T06:41:39.168Z,9.78
2023-03-25T06:42:33.455Z,9.93
2023-03-25T06:43:35.516Z,9.86
2023-03-25T06:44:35.577Z,9.86
2023-03-25T06:45:38.788Z,9.89
2023-03-25T06:46:40.841Z,10.01
2023-03-25T06:47:31.349Z,10.02
2023-03-25T06:48:13.015Z,10.01
2023-03-25T06:48:54.743Z,10.08
2023-03-25T06:49:36.551Z,10.22
2023-03-25T06:53:17.980Z,10.32
2023-03-25T06:53:59.693Z,10.35
2023-03-25T06:54:41.508Z,10.31
2023-03-25T06:55:23.202Z,10.27
2023-03-25T06:56:05.407Z,10.34
2023-03-25T06:56:47.407Z,10.24
2023-03-25T06:57:29.203Z,10.26
2023-03-25T06:58:11.567Z,10.30
2023-03-25T06:58:53.308Z,10.21
2023-03-25T06:59:34.953Z,10.21
2023-03-25T07:00:20.381Z,10.28
2023-03-25T07:01:07.307Z,10.34
2023-03-25T07:01:49.468Z,10.29
2023-03-25T07:02:31.160Z,10.21
2023-03-25T07:03:12.855Z,10.36
2023-03-25T07:03:54.704Z,10.32
2023-03-25T07:04:36.528Z,10.54
2023-03-25T07:05:18.473Z,10.60
2023-03-25T07:06:00.265Z,10.65
2023-03-25T07:06:41.981Z,10.66
2023-03-25T07:07:23.714Z,10.62
2023-03-25T07:08:05.595Z,10.65
2023-03-25T07:08:47.866Z,10.84
2023-03-25T07:09:29.554Z,10.77
2023-03-25T07:10:14.069Z,10.89
2023-03-25T07:11:01.985Z,10.92
2023-03-25T07:11:43.840Z,11.05
2023-03-25T07:12:25.779Z,11.01
2023-03-25T07:13:09.185Z,11.31
2023-03-25T07:13:53.816Z,11.58
2023-03-25T07:14:35.502Z,11.63
2023-03-25T07:15:17.336Z,11.59
2023-03-25T07:16:01.239Z,11.45
2023-03-25T07:16:43.040Z,11.30
2023-03-25T07:17:24.976Z,11.14
2023-03-25T07:18:06.687Z,11.10
2023-03-25T07:18:50.210Z,11.09
2023-03-25T07:19:31.942Z,11.19
2023-03-25T07:20:15.836Z,11.15
2023-03-25T07:20:59.615Z,11.34
2023-03-25T07:21:41.355Z,11.27
2023-03-25T07:22:23.050Z,11.37
2023-03-25T07:23:04.691Z,11.37
2023-03-25T07:23:46.496Z,11.30
2023-03-25T07:24:28.363Z,11.14
2023-03-25T07:25:10.283Z,11.02
2023-03-25T07:25:52.911Z,10.99
2023-03-25T07:26:35.041Z,11.03
2023-03-25T07:27:16.862Z,10.91
2023-03-25T07:28:05.976Z,10.96
2023-03-25T07:28:50.438Z,10.91
2023-03-25T07:29:32.156Z,10.95
2023-03-25T07:30:14.073Z,11.06
2023-03-25T07:30:55.760Z,11.06
2023-03-25T07:31:37.662Z,11.29
2023-03-25T07:32:19.509Z,11.57
2023-03-25T07:33:01.412Z,11.44
2023-03-25T07:33:43.741Z,11.63
2023-03-25T07:34:25.650Z,11.62
2023-03-25T07:35:09.361Z,11.71
2023-03-25T07:35:51.396Z,11.65
2023-03-25T07:36:33.204Z,11.59
2023-03-25T07:37:14.933Z,11.34
2023-03-25T07:37:56.683Z,11.49
2023-03-25T07:38:38.356Z,11.64
2023-03-25T07:39:20.117Z,11.50
2023-03-25T07:40:01.939Z,11.63
2023-03-25T07:40:43.601Z,11.64
2023-03-25T07:41:32.072Z,11.91
2023-03-25T07:42:24.555Z,11.77
2023-03-25T07:43:26.927Z,11.99
2023-03-25T07:44:11.365Z,11.91
2023-03-25T07:44:53.943Z,12.00
2023-03-25T07:45:43.795Z,12.10
2023-03-25T07:46:26.450Z,12.37
2023-03-25T07:47:08.222Z,12.33
2023-03-25T07:47:50.802Z,12.44
2023-03-25T07:48:32.805Z,12.58
2023-03-25T07:49:16.348Z,12.76
2023-03-25T07:49:57.950Z,12.80
2023-03-25T07:50:40.785Z,13.06
2023-03-25T07:51:22.490Z,12.97
2023-03-25T07:52:04.270Z,12.69
2023-03-25T07:52:46.239Z,12.50
2023-03-25T07:53:27.891Z,12.32
2023-03-25T07:54:09.681Z,12.27
2023-03-25T07:54:51.440Z,12.16
2023-03-25T07:55:33.078Z,12.22
2023-03-25T07:56:15.534Z,12.22
2023-03-25T07:56:57.616Z,12.18
2023-03-25T07:57:42.194Z,12.21
2023-03-25T07:58:24.001Z,12.19
2023-03-25T07:59:05.992Z,12.17
2023-03-25T07:59:47.692Z,12.02
2023-03-25T08:00:30.246Z,12.07
2023-03-25T08:01:12.161Z,12.05
2023-03-25T08:01:53.896Z,11.91
2023-03-25T08:02:35.666Z,12.01
2023-03-25T08:03:17.783Z,11.91
2023-03-25T08:03:59.540Z,12.06
2023-03-25T08:04:41.282Z,12.09
2023-03-25T08:05:23.006Z,11.85
2023-03-25T08:06:05.050Z,11.58
2023-03-25T08:06:46.769Z,11.92
2023-03-25T08:07:28.889Z,11.94
2023-03-25T08:08:10.628Z,11.95
2023-03-25T08:08:52.310Z,11.84
2023-03-25T08:09:33.969Z,11.81
2023-03-25T08:10:16.232Z,11.83
2023-03-25T08:10:58.134Z,11.87
2023-03-25T08:11:39.794Z,12.06
2023-03-25T08:12:21.440Z,11.98
2023-03-25T08:13:03.102Z,12.05
2023-03-25T08:13:44.702Z,11.90
2023-03-25T08:14:27.163Z,11.98
2023-03-25T08:15:09.383Z,11.95
2023-03-25T08:15:51.969Z,11.91
2023-03-25T08:16:33.820Z,11.85
2023-03-25T08:17:15.889Z,12.00
2023-03-25T08:17:57.638Z,12.22
2023-03-25T08:18:39.360Z,12.20
2023-03-25T08:19:21.062Z,12.39
2023-03-25T08:20:04.895Z,12.36
2023-03-25T08:20:46.582Z,12.13
2023-03-25T08:21:28.267Z,12.13
2023-03-25T08:22:09.918Z,12.03
2023-03-25T08:22:51.581Z,11.86
2023-03-25T08:23:36.853Z,11.87
2023-03-25T08:24:18.507Z,11.83
2023-03-25T08:25:00.289Z,11.68
2023-03-25T08:25:42.037Z,11.76
2023-03-25T08:26:25.963Z,11.68
2023-03-25T08:27:15.007Z,11.85
2023-03-25T08:27:58.292Z,11.71
2023-03-25T08:28:40.031Z,11.68
2023-03-25T08:29:22.157Z,11.70
2023-03-25T08:30:05.038Z,11.67
2023-03-25T08:30:46.753Z,11.64
2023-03-25T08:31:34.167Z,11.63
2023-03-25T08:32:16.211Z,11.72
2023-03-25T08:32:57.952Z,11.63
2023-03-25T08:33:41.001Z,11.50
2023-03-25T08:34:23.550Z,11.61
2023-03-25T08:35:10.673Z,11.50
2023-03-25T08:35:52.723Z,11.55
2023-03-25T08:36:34.635Z,11.56
2023-03-25T08:37:16.501Z,11.60
2023-03-25T08:38:01.314Z,11.67
2023-03-25T08:38:43.220Z,11.73
2023-03-25T08:39:29.929Z,11.71
2023-03-25T08:40:11.817Z,11.51
2023-03-25T08:40:53.801Z,11.50
2023-03-25T08:41:37.791Z,11.32
2023-03-25T08:42:19.559Z,11.28
2023-03-25T08:43:04.187Z,11.03
2023-03-25T08:43:46.093Z,11.04
2023-03-25T08:44:27.876Z,10.78
2023-03-25T08:45:10.509Z,10.77
2023-03-25T08:45:52.592Z,10.54
2023-03-25T08:46:34.803Z,10.49
2023-03-25T08:47:16.625Z,10.48
2023-03-25T08:47:58.777Z,10.41
2023-03-25T08:48:40.731Z,10.36
2023-03-25T08:49:22.627Z,10.26
2023-03-25T08:50:04.665Z,10.22
2023-03-25T08:50:46.422Z,10.28
2023-03-25T08:51:28.134Z,10.18
2023-03-25T08:52:10.326Z,10.17
2023-03-25T08:52:53.669Z,10.07
2023-03-25T08:53:35.453Z,10.04
2023-03-25T08:54:17.345Z,9.83
2023-03-25T08:54:59.121Z,9.84
2023-03-25T08:55:40.887Z,9.78
2023-03-25T08:56:22.619Z,9.81
2023-03-25T08:57:04.426Z,9.72
2023-03-25T08:57:46.320Z,9.71
2023-03-25T08:58:28.063Z,9.77
2023-03-25T08:59:09.906Z,9.76
2023-03-25T08:59:51.777Z,9.64
2023-03-25T09:00:34.728Z,9.71
2023-03-25T09:01:16.643Z,9.66
2023-03-25T09:02:00.782Z,9.62
2023-03-25T09:02:43.735Z,9.68
2023-03-25T09:03:27.071Z,9.59
2023-03-25T09:04:09.203Z,9.66
2023-03-25T09:04:50.948Z,9.62
2023-03-25T09:05:32.694Z,9.51
2023-03-25T09:06:14.463Z,9.48
2023-03-25T09:07:11.984Z,9.47
2023-03-25T09:07:54.109Z,9.35
2023-03-25T09:08:39.726Z,9.44
2023-03-25T09:09:21.505Z,9.33
2023-03-25T09:10:04.285Z,9.38
2023-03-25T09:10:45.967Z,9.33
2023-03-25T09:11:36.430Z,9.25
2023-03-25T09:12:18.721Z,9.23
2023-03-25T09:13:00.623Z,9.08
2023-03-25T09:13:42.443Z,9.08
2023-03-25T09:14:24.095Z,9.09
2023-03-25T09:15:06.362Z,9.16
2023-03-25T09:15:48.064Z,9.03
2023-03-25T09:16:33.443Z,9.11
2023-03-25T09:17:15.264Z,9.13
2023-03-25T09:17:57.418Z,9.22
2023-03-25T09:18:39.141Z,9.17
2023-03-25T09:19:21.258Z,9.24
2023-03-25T09:20:03.086Z,9.38
2023-03-25T09:20:48.214Z,9.27
2023-03-25T09:21:30.331Z,9.41
2023-03-25T09:22:12.201Z,9.47
2023-03-25T09:22:54.040Z,9.54
2023-03-25T09:23:36.015Z,9.57
2023-03-25T09:24:17.751Z,9.75
2023-03-25T09:24:59.494Z,9.80
2023-03-25T09:25:41.747Z,10.12
2023-03-25T09:26:24.407Z,10.22
2023-03-25T09:27:06.617Z,10.51
2023-03-25T09:27:48.322Z,10.57
2023-03-25T09:28:29.949Z,10.59
2023-03-25T09:29:11.586Z,10.63
2023-03-25T09:29:53.309Z,10.68
2023-03-25T09:30:35.235Z,10.74
2023-03-25T09:31:16.931Z,10.80
2023-03-25T09:31:59.711Z,11.01
2023-03-25T09:32:41.809Z,10.99
2023-03-25T09:33:23.607Z,10.99
2023-03-25T09:34:05.481Z,11.07
2023-03-25T09:34:47.200Z,11.10
2023-03-25T09:35:28.918Z,11.12
2023-03-25T09:36:11.685Z,11.22
2023-03-25T09:36:54.770Z,11.15
2023-03-25T09:37:37.618Z,11.26
2023-03-25T09:38:19.392Z,11.42
2023-03-25T09:39:01.291Z,11.51
2023-03-25T09:39:43.390Z,11.90
2023-03-25T09:40:25.541Z,12.18
2023-03-25T09:41:40.257Z,12.67
2023-03-25T09:42:37.372Z,13.05
2023-03-25T09:43:51.983Z,13.18
2023-03-25T09:44:45.291Z,13.48
2023-03-25T09:45:36.176Z,13.72
2023-03-25T09:46:18.212Z,13.87
2023-03-25T09:47:02.087Z,14.11
2023-03-25T09:47:51.981Z,14.33
2023-03-25T09:48:39.283Z,14.32
2023-03-25T09:49:25.770Z,14.29
2023-03-25T09:50:14.540Z,14.58
2023-03-25T09:51:05.099Z,14.81
2023-03-25T09:51:48.925Z,14.85
2023-03-25T09:52:39.047Z,14.83
2023-03-25T09:53:29.073Z,14.95
2023-03-25T09:54:31.767Z,14.90
2023-03-25T09:55:22.269Z,14.51
2023-03-25T09:56:07.690Z,14.23
2023-03-25T09:56:51.193Z,14.01
2023-03-25T09:57:41.735Z,13.92